sensor_id;sensor_type;location;lat;lon;timestamp;temperature;humidity
35894;DHT22;21994;48.204;16.516;2022-08-01T00:00:36;16.80;99.90
35894;DHT22;21994;48.204;16.516;2022-08-01T00:03:02;16.70;99.90
35894;DHT22;21994;48.204;16.516;2022-08-01T00:05:28;16.70;99.90
35894;DHT22;21994;48.204;16.516;2022-08-01T00:07:54;16.70;99.90
35894;DHT22;21994;48.204;16.516;2022-08-01T00:10:20;16.60;99.90
35894;DHT22;21994;48.204;16.516;2022-08-01T00:12:46;16.60;99.90
35894;DHT22;21994;48.204;16.516;2022-08-01T00:15:15;16.60;99.90
35894;DHT22;21994;48.204;16.516;2022-08-01T00:17:42;16.50;99.90
35894;DHT22;21994;48.204;16.516;2022-08-01T00:20:11;16.50;99.90
35894;DHT22;21994;48.204;16.516;2022-08-01T00:22:38;16.50;99.90
35894;DHT22;21994;48.204;16.516;2022-08-01T00:25:04;16.40;99.90
35894;DHT22;21994;48.204;16.516;2022-08-01T00:27:31;16.40;99.90
35894;DHT22;21994;48.204;16.516;2022-08-01T00:29:57;16.40;99.90
35894;DHT22;21994;48.204;16.516;2022-08-01T00:32:24;16.40;99.90
35894;DHT22;21994;48.204;16.516;2022-08-01T00:34:50;16.30;99.90
35894;DHT22;21994;48.204;16.516;2022-08-01T00:37:16;16.30;99.90
35894;DHT22;21994;48.204;16.516;2022-08-01T00:39:42;16.30;99.90
35894;DHT22;21994;48.204;16.516;2022-08-01T00:42:12;16.30;99.90
35894;DHT22;21994;48.204;16.516;2022-08-01T00:44:38;16.30;99.90
35894;DHT22;21994;48.204;16.516;2022-08-01T00:47:05;16.30;99.90
35894;DHT22;21994;48.204;16.516;2022-08-01T00:49:31;16.20;99.90
35894;DHT22;21994;48.204;16.516;2022-08-01T00:51:58;16.20;99.90
35894;DHT22;21994;48.204;16.516;2022-08-01T00:54:26;16.20;99.90
35894;DHT22;21994;48.204;16.516;2022-08-01T00:56:53;16.20;99.90
35894;DHT22;21994;48.204;16.516;2022-08-01T00:59:21;16.10;99.90
35894;DHT22;21994;48.204;16.516;2022-08-01T01:01:48;16.10;99.90
35894;DHT22;21994;48.204;16.516;2022-08-01T01:04:14;16.10;99.90
35894;DHT22;21994;48.204;16.516;2022-08-01T01:09:35;16.00;99.90
35894;DHT22;21994;48.204;16.516;2022-08-01T01:12:47;16.10;99.90
35894;DHT22;21994;48.204;16.516;2022-08-01T01:15:47;16.00;99.90
35894;DHT22;21994;48.204;16.516;2022-08-01T01:29:21;16.00;99.90
35894;DHT22;21994;48.204;16.516;2022-08-01T01:32:13;16.00;99.90
35894;DHT22;21994;48.204;16.516;2022-08-01T01:34:44;16.00;99.90
35894;DHT22;21994;48.204;16.516;2022-08-01T01:37:17;16.00;99.90
35894;DHT22;21994;48.204;16.516;2022-08-01T01:39:46;15.90;99.90
35894;DHT22;21994;48.204;16.516;2022-08-01T01:42:13;16.00;99.90
35894;DHT22;21994;48.204;16.516;2022-08-01T01:44:41;16.10;99.90
35894;DHT22;21994;48.204;16.516;2022-08-01T01:47:09;16.10;99.90
35894;DHT22;21994;48.204;16.516;2022-08-01T01:49:40;16.10;99.90
35894;DHT22;21994;48.204;16.516;2022-08-01T01:52:07;16.20;99.90
35894;DHT22;21994;48.204;16.516;2022-08-01T01:54:37;16.20;99.90
35894;DHT22;21994;48.204;16.516;2022-08-01T01:57:06;16.20;99.90
35894;DHT22;21994;48.204;16.516;2022-08-01T01:59:36;16.30;99.90
35894;DHT22;21994;48.204;16.516;2022-08-01T02:02:05;16.30;99.90
35894;DHT22;21994;48.204;16.516;2022-08-01T02:04:34;16.40;99.90
35894;DHT22;21994;48.204;16.516;2022-08-01T02:07:02;16.40;99.90
35894;DHT22;21994;48.204;16.516;2022-08-01T02:09:29;16.50;99.90
35894;DHT22;21994;48.204;16.516;2022-08-01T02:11:57;16.60;99.90
35894;DHT22;21994;48.204;16.516;2022-08-01T02:14:24;16.60;99.90
35894;DHT22;21994;48.204;16.516;2022-08-01T02:16:54;16.70;99.90
35894;DHT22;21994;48.204;16.516;2022-08-01T02:19:23;16.70;99.90
35894;DHT22;21994;48.204;16.516;2022-08-01T02:21:51;16.80;99.90
35894;DHT22;21994;48.204;16.516;2022-08-01T02:24:29;16.80;99.90
35894;DHT22;21994;48.204;16.516;2022-08-01T02:27:02;17.00;99.90
35894;DHT22;21994;48.204;16.516;2022-08-01T02:29:58;17.00;99.90
35894;DHT22;21994;48.204;16.516;2022-08-01T02:32:44;17.00;99.90
35894;DHT22;21994;48.204;16.516;2022-08-01T02:35:34;17.10;99.90
35894;DHT22;21994;48.204;16.516;2022-08-01T02:38:06;17.20;99.90
35894;DHT22;21994;48.204;16.516;2022-08-01T02:40:38;17.30;99.90
35894;DHT22;21994;48.204;16.516;2022-08-01T02:43:09;17.30;99.90
35894;DHT22;21994;48.204;16.516;2022-08-01T02:45:41;17.30;99.90
35894;DHT22;21994;48.204;16.516;2022-08-01T02:48:11;17.20;99.90
35894;DHT22;21994;48.204;16.516;2022-08-01T02:50:41;17.30;99.90
35894;DHT22;21994;48.204;16.516;2022-08-01T02:53:09;17.40;99.90
35894;DHT22;21994;48.204;16.516;2022-08-01T02:55:38;17.60;99.90
35894;DHT22;21994;48.204;16.516;2022-08-01T02:58:07;17.60;99.90
35894;DHT22;21994;48.204;16.516;2022-08-01T03:00:34;17.70;99.90
35894;DHT22;21994;48.204;16.516;2022-08-01T03:03:01;17.60;99.90
35894;DHT22;21994;48.204;16.516;2022-08-01T03:05:30;17.60;99.90
35894;DHT22;21994;48.204;16.516;2022-08-01T03:07:59;17.50;99.90
35894;DHT22;21994;48.204;16.516;2022-08-01T03:10:27;17.50;99.90
35894;DHT22;21994;48.204;16.516;2022-08-01T03:12:54;17.50;99.90
35894;DHT22;21994;48.204;16.516;2022-08-01T03:15:23;17.50;99.90
35894;DHT22;21994;48.204;16.516;2022-08-01T03:17:51;17.50;99.90
35894;DHT22;21994;48.204;16.516;2022-08-01T03:20:21;17.50;99.90
35894;DHT22;21994;48.204;16.516;2022-08-01T03:22:50;17.60;99.90
35894;DHT22;21994;48.204;16.516;2022-08-01T03:25:19;17.60;99.90
35894;DHT22;21994;48.204;16.516;2022-08-01T03:27:50;17.60;99.90
35894;DHT22;21994;48.204;16.516;2022-08-01T03:30:25;17.80;99.90
35894;DHT22;21994;48.204;16.516;2022-08-01T03:32:52;17.80;99.90
35894;DHT22;21994;48.204;16.516;2022-08-01T03:35:19;17.80;99.90
35894;DHT22;21994;48.204;16.516;2022-08-01T03:37:49;17.80;99.90
35894;DHT22;21994;48.204;16.516;2022-08-01T03:40:38;17.90;99.90
35894;DHT22;21994;48.204;16.516;2022-08-01T03:43:08;17.80;99.90
35894;DHT22;21994;48.204;16.516;2022-08-01T03:45:40;17.80;99.90
35894;DHT22;21994;48.204;16.516;2022-08-01T03:48:10;17.80;99.90
35894;DHT22;21994;48.204;16.516;2022-08-01T03:50:41;17.80;99.90
35894;DHT22;21994;48.204;16.516;2022-08-01T03:53:10;17.80;99.90
35894;DHT22;21994;48.204;16.516;2022-08-01T03:55:38;17.90;99.90
35894;DHT22;21994;48.204;16.516;2022-08-01T03:58:05;18.00;99.90
35894;DHT22;21994;48.204;16.516;2022-08-01T04:00:32;18.10;99.90
35894;DHT22;21994;48.204;16.516;2022-08-01T04:02:58;18.20;99.90
35894;DHT22;21994;48.204;16.516;2022-08-01T04:05:24;18.10;99.90
35894;DHT22;21994;48.204;16.516;2022-08-01T04:07:51;18.10;99.90
35894;DHT22;21994;48.204;16.516;2022-08-01T04:10:25;18.20;99.90
35894;DHT22;21994;48.204;16.516;2022-08-01T04:12:51;18.30;99.90
35894;DHT22;21994;48.204;16.516;2022-08-01T04:15:17;18.20;99.90
35894;DHT22;21994;48.204;16.516;2022-08-01T04:17:43;18.10;99.90
35894;DHT22;21994;48.204;16.516;2022-08-01T04:20:10;18.10;99.90
35894;DHT22;21994;48.204;16.516;2022-08-01T04:22:36;18.10;99.90
35894;DHT22;21994;48.204;16.516;2022-08-01T04:25:15;18.10;99.90
35894;DHT22;21994;48.204;16.516;2022-08-01T04:27:47;18.10;99.90
35894;DHT22;21994;48.204;16.516;2022-08-01T04:30:17;18.00;99.90
35894;DHT22;21994;48.204;16.516;2022-08-01T04:32:54;18.10;99.90
35894;DHT22;21994;48.204;16.516;2022-08-01T04:35:21;18.30;99.90
35894;DHT22;21994;48.204;16.516;2022-08-01T04:37:48;18.40;99.90
35894;DHT22;21994;48.204;16.516;2022-08-01T04:40:16;18.40;99.90
35894;DHT22;21994;48.204;16.516;2022-08-01T04:42:43;18.40;99.90
35894;DHT22;21994;48.204;16.516;2022-08-01T04:45:09;18.50;99.90
35894;DHT22;21994;48.204;16.516;2022-08-01T04:47:37;18.50;99.90
35894;DHT22;21994;48.204;16.516;2022-08-01T04:50:07;18.60;99.90
35894;DHT22;21994;48.204;16.516;2022-08-01T04:52:35;18.50;99.90
35894;DHT22;21994;48.204;16.516;2022-08-01T04:55:04;18.60;99.90
35894;DHT22;21994;48.204;16.516;2022-08-01T04:57:34;18.60;99.90
35894;DHT22;21994;48.204;16.516;2022-08-01T05:00:03;18.70;99.90
35894;DHT22;21994;48.204;16.516;2022-08-01T05:02:29;18.80;99.90
35894;DHT22;21994;48.204;16.516;2022-08-01T05:04:56;18.90;99.90
35894;DHT22;21994;48.204;16.516;2022-08-01T05:07:22;19.00;99.90
35894;DHT22;21994;48.204;16.516;2022-08-01T05:09:48;19.00;99.90
35894;DHT22;21994;48.204;16.516;2022-08-01T05:12:14;19.20;99.90
35894;DHT22;21994;48.204;16.516;2022-08-01T05:14:41;19.20;99.90
35894;DHT22;21994;48.204;16.516;2022-08-01T05:17:09;19.50;99.90
35894;DHT22;21994;48.204;16.516;2022-08-01T05:19:37;19.60;99.90
35894;DHT22;21994;48.204;16.516;2022-08-01T05:22:06;19.80;99.90
35894;DHT22;21994;48.204;16.516;2022-08-01T05:24:34;19.90;99.90
35894;DHT22;21994;48.204;16.516;2022-08-01T05:27:01;19.90;99.90
35894;DHT22;21994;48.204;16.516;2022-08-01T05:29:27;20.00;99.90
35894;DHT22;21994;48.204;16.516;2022-08-01T05:31:55;20.20;99.90
35894;DHT22;21994;48.204;16.516;2022-08-01T05:34:22;20.30;99.90
35894;DHT22;21994;48.204;16.516;2022-08-01T05:36:48;20.40;99.90
35894;DHT22;21994;48.204;16.516;2022-08-01T05:39:14;20.40;99.90
35894;DHT22;21994;48.204;16.516;2022-08-01T05:41:41;20.40;99.90
35894;DHT22;21994;48.204;16.516;2022-08-01T05:44:07;20.40;99.90
35894;DHT22;21994;48.204;16.516;2022-08-01T05:46:34;20.40;99.90
35894;DHT22;21994;48.204;16.516;2022-08-01T05:49:02;20.40;99.90
35894;DHT22;21994;48.204;16.516;2022-08-01T05:51:29;20.60;99.90
35894;DHT22;21994;48.204;16.516;2022-08-01T05:53:56;20.60;99.90
35894;DHT22;21994;48.204;16.516;2022-08-01T05:56:22;20.70;99.90
35894;DHT22;21994;48.204;16.516;2022-08-01T05:58:49;20.80;99.90
35894;DHT22;21994;48.204;16.516;2022-08-01T06:01:17;20.90;99.90
35894;DHT22;21994;48.204;16.516;2022-08-01T06:03:43;21.00;99.90
35894;DHT22;21994;48.204;16.516;2022-08-01T06:06:09;21.10;99.90
35894;DHT22;21994;48.204;16.516;2022-08-01T06:08:35;21.40;99.90
35894;DHT22;21994;48.204;16.516;2022-08-01T06:11:01;21.60;99.90
35894;DHT22;21994;48.204;16.516;2022-08-01T06:13:27;21.70;99.90
35894;DHT22;21994;48.204;16.516;2022-08-01T06:15:53;22.00;99.90
35894;DHT22;21994;48.204;16.516;2022-08-01T06:18:20;22.30;99.90
35894;DHT22;21994;48.204;16.516;2022-08-01T06:20:46;22.50;99.90
35894;DHT22;21994;48.204;16.516;2022-08-01T06:23:12;22.60;99.90
35894;DHT22;21994;48.204;16.516;2022-08-01T06:25:41;22.70;99.90
35894;DHT22;21994;48.204;16.516;2022-08-01T06:28:08;23.00;99.90
35894;DHT22;21994;48.204;16.516;2022-08-01T06:30:34;22.90;99.90
35894;DHT22;21994;48.204;16.516;2022-08-01T06:33:00;23.20;99.90
35894;DHT22;21994;48.204;16.516;2022-08-01T06:35:26;23.40;99.90
35894;DHT22;21994;48.204;16.516;2022-08-01T06:37:57;23.40;99.90
35894;DHT22;21994;48.204;16.516;2022-08-01T06:40:23;23.50;99.90
35894;DHT22;21994;48.204;16.516;2022-08-01T06:42:49;23.60;99.90
35894;DHT22;21994;48.204;16.516;2022-08-01T06:45:16;23.90;99.90
35894;DHT22;21994;48.204;16.516;2022-08-01T06:47:43;24.00;99.90
35894;DHT22;21994;48.204;16.516;2022-08-01T06:50:11;24.10;99.90
35894;DHT22;21994;48.204;16.516;2022-08-01T06:52:37;24.10;99.90
35894;DHT22;21994;48.204;16.516;2022-08-01T06:55:04;24.20;99.90
35894;DHT22;21994;48.204;16.516;2022-08-01T06:57:30;24.40;99.90
35894;DHT22;21994;48.204;16.516;2022-08-01T07:00:52;24.20;99.90
35894;DHT22;21994;48.204;16.516;2022-08-01T07:03:18;24.20;99.90
35894;DHT22;21994;48.204;16.516;2022-08-01T07:05:43;24.20;99.90
35894;DHT22;21994;48.204;16.516;2022-08-01T07:08:09;24.30;99.90
35894;DHT22;21994;48.204;16.516;2022-08-01T07:10:35;24.30;99.90
35894;DHT22;21994;48.204;16.516;2022-08-01T07:13:01;24.20;99.90
35894;DHT22;21994;48.204;16.516;2022-08-01T07:15:27;24.30;99.90
35894;DHT22;21994;48.204;16.516;2022-08-01T07:17:53;24.60;99.90
35894;DHT22;21994;48.204;16.516;2022-08-01T07:20:19;25.00;99.90
35894;DHT22;21994;48.204;16.516;2022-08-01T07:22:45;25.00;99.90
35894;DHT22;21994;48.204;16.516;2022-08-01T07:25:11;24.80;99.90
35894;DHT22;21994;48.204;16.516;2022-08-01T07:27:37;24.70;99.90
35894;DHT22;21994;48.204;16.516;2022-08-01T07:30:04;24.90;99.90
35894;DHT22;21994;48.204;16.516;2022-08-01T07:32:31;24.80;99.90
35894;DHT22;21994;48.204;16.516;2022-08-01T07:34:57;24.80;99.90
35894;DHT22;21994;48.204;16.516;2022-08-01T07:37:23;24.80;99.90
35894;DHT22;21994;48.204;16.516;2022-08-01T07:39:49;25.20;99.90
35894;DHT22;21994;48.204;16.516;2022-08-01T07:42:15;25.20;99.90
35894;DHT22;21994;48.204;16.516;2022-08-01T07:44:41;25.40;99.90
35894;DHT22;21994;48.204;16.516;2022-08-01T07:47:07;25.40;99.90
35894;DHT22;21994;48.204;16.516;2022-08-01T07:49:33;25.30;99.90
35894;DHT22;21994;48.204;16.516;2022-08-01T07:51:59;25.30;99.90
35894;DHT22;21994;48.204;16.516;2022-08-01T07:54:25;25.30;99.90
35894;DHT22;21994;48.204;16.516;2022-08-01T07:56:53;25.10;99.90
35894;DHT22;21994;48.204;16.516;2022-08-01T07:59:20;24.90;99.60
35894;DHT22;21994;48.204;16.516;2022-08-01T08:01:49;24.80;99.90
35894;DHT22;21994;48.204;16.516;2022-08-01T08:04:17;24.60;99.90
35894;DHT22;21994;48.204;16.516;2022-08-01T08:06:43;24.50;99.90
35894;DHT22;21994;48.204;16.516;2022-08-01T08:09:10;24.40;99.90
35894;DHT22;21994;48.204;16.516;2022-08-01T08:11:36;24.40;99.90
35894;DHT22;21994;48.204;16.516;2022-08-01T08:14:02;24.40;99.90
35894;DHT22;21994;48.204;16.516;2022-08-01T08:16:28;24.30;99.90
35894;DHT22;21994;48.204;16.516;2022-08-01T08:18:54;24.50;99.90
35894;DHT22;21994;48.204;16.516;2022-08-01T08:21:20;24.50;99.90
35894;DHT22;21994;48.204;16.516;2022-08-01T08:23:46;24.50;99.90
35894;DHT22;21994;48.204;16.516;2022-08-01T08:26:30;24.40;99.90
35894;DHT22;21994;48.204;16.516;2022-08-01T08:28:56;24.50;99.90
35894;DHT22;21994;48.204;16.516;2022-08-01T08:31:22;24.50;99.90
35894;DHT22;21994;48.204;16.516;2022-08-01T08:33:47;24.50;99.90
35894;DHT22;21994;48.204;16.516;2022-08-01T08:36:14;24.50;99.90
35894;DHT22;21994;48.204;16.516;2022-08-01T08:38:40;24.40;99.90
35894;DHT22;21994;48.204;16.516;2022-08-01T08:41:06;24.50;99.90
35894;DHT22;21994;48.204;16.516;2022-08-01T08:43:32;24.50;99.90
35894;DHT22;21994;48.204;16.516;2022-08-01T08:45:59;24.50;99.90
35894;DHT22;21994;48.204;16.516;2022-08-01T08:48:26;24.60;99.90
35894;DHT22;21994;48.204;16.516;2022-08-01T08:50:53;24.70;99.90
35894;DHT22;21994;48.204;16.516;2022-08-01T08:53:19;24.80;99.90
35894;DHT22;21994;48.204;16.516;2022-08-01T08:55:45;25.00;99.90
35894;DHT22;21994;48.204;16.516;2022-08-01T08:58:12;25.20;99.90
35894;DHT22;21994;48.204;16.516;2022-08-01T09:00:39;25.40;99.90
35894;DHT22;21994;48.204;16.516;2022-08-01T09:03:06;25.60;99.90
35894;DHT22;21994;48.204;16.516;2022-08-01T09:05:32;25.90;99.90
35894;DHT22;21994;48.204;16.516;2022-08-01T09:07:58;26.00;99.90
35894;DHT22;21994;48.204;16.516;2022-08-01T09:10:23;25.90;99.30
35894;DHT22;21994;48.204;16.516;2022-08-01T09:13:11;26.20;98.00
35894;DHT22;21994;48.204;16.516;2022-08-01T09:15:43;27.10;99.80
35894;DHT22;21994;48.204;16.516;2022-08-01T09:18:27;27.60;97.30
35894;DHT22;21994;48.204;16.516;2022-08-01T09:23:32;28.40;96.00
35894;DHT22;21994;48.204;16.516;2022-08-01T09:26:21;29.10;96.60
35894;DHT22;21994;48.204;16.516;2022-08-01T09:28:55;29.90;93.50
35894;DHT22;21994;48.204;16.516;2022-08-01T09:31:20;30.50;93.30
35894;DHT22;21994;48.204;16.516;2022-08-01T09:33:52;31.00;92.60
35894;DHT22;21994;48.204;16.516;2022-08-01T09:36:22;31.40;91.70
35894;DHT22;21994;48.204;16.516;2022-08-01T09:38:50;31.30;92.40
35894;DHT22;21994;48.204;16.516;2022-08-01T09:41:28;32.50;88.70
35894;DHT22;21994;48.204;16.516;2022-08-01T09:43:56;31.90;91.30
35894;DHT22;21994;48.204;16.516;2022-08-01T09:46:23;30.90;90.80
35894;DHT22;21994;48.204;16.516;2022-08-01T09:49:01;30.30;91.00
35894;DHT22;21994;48.204;16.516;2022-08-01T09:51:34;29.90;91.90
35894;DHT22;21994;48.204;16.516;2022-08-01T09:54:05;29.00;91.30
35894;DHT22;21994;48.204;16.516;2022-08-01T09:56:42;28.40;92.90
35894;DHT22;21994;48.204;16.516;2022-08-01T09:59:09;28.80;92.00
35894;DHT22;21994;48.204;16.516;2022-08-01T10:01:43;29.20;92.40
35894;DHT22;21994;48.204;16.516;2022-08-01T10:04:21;29.80;91.50
35894;DHT22;21994;48.204;16.516;2022-08-01T10:06:50;29.90;91.30
35894;DHT22;21994;48.204;16.516;2022-08-01T10:09:30;29.30;91.30
35894;DHT22;21994;48.204;16.516;2022-08-01T10:11:59;28.90;91.50
35894;DHT22;21994;48.204;16.516;2022-08-01T10:14:26;28.90;92.50
35894;DHT22;21994;48.204;16.516;2022-08-01T10:16:53;28.80;92.40
35894;DHT22;21994;48.204;16.516;2022-08-01T10:19:23;28.80;92.70
35894;DHT22;21994;48.204;16.516;2022-08-01T10:21:52;28.60;92.40
35894;DHT22;21994;48.204;16.516;2022-08-01T10:24:22;28.40;91.70
35894;DHT22;21994;48.204;16.516;2022-08-01T10:26:51;28.00;92.50
35894;DHT22;21994;48.204;16.516;2022-08-01T10:29:20;28.30;92.80
35894;DHT22;21994;48.204;16.516;2022-08-01T10:31:47;28.40;95.60
35894;DHT22;21994;48.204;16.516;2022-08-01T10:34:16;28.70;92.70
35894;DHT22;21994;48.204;16.516;2022-08-01T10:36:47;29.90;92.30
35894;DHT22;21994;48.204;16.516;2022-08-01T10:39:13;31.10;92.10
35894;DHT22;21994;48.204;16.516;2022-08-01T10:41:40;32.50;90.10
35894;DHT22;21994;48.204;16.516;2022-08-01T10:44:07;32.90;87.10
35894;DHT22;21994;48.204;16.516;2022-08-01T10:46:38;34.30;87.20
35894;DHT22;21994;48.204;16.516;2022-08-01T10:51:38;34.70;88.00
35894;DHT22;21994;48.204;16.516;2022-08-01T10:54:09;35.70;84.80
35894;DHT22;21994;48.204;16.516;2022-08-01T10:56:42;35.60;85.50
35894;DHT22;21994;48.204;16.516;2022-08-01T10:59:29;35.30;79.50
35894;DHT22;21994;48.204;16.516;2022-08-01T11:02:03;35.60;77.60
35894;DHT22;21994;48.204;16.516;2022-08-01T11:07:16;35.00;77.80
35894;DHT22;21994;48.204;16.516;2022-08-01T11:09:58;35.20;73.80
35894;DHT22;21994;48.204;16.516;2022-08-01T11:12:40;35.10;77.50
35894;DHT22;21994;48.204;16.516;2022-08-01T11:17:43;35.30;78.70
35894;DHT22;21994;48.204;16.516;2022-08-01T11:20:22;35.60;79.40
35894;DHT22;21994;48.204;16.516;2022-08-01T11:30:47;33.70;76.80
35894;DHT22;21994;48.204;16.516;2022-08-01T11:33:19;32.70;80.40
35894;DHT22;21994;48.204;16.516;2022-08-01T11:38:39;31.30;82.60
35894;DHT22;21994;48.204;16.516;2022-08-01T11:41:30;31.00;80.60
35894;DHT22;21994;48.204;16.516;2022-08-01T11:44:04;31.00;83.40
35894;DHT22;21994;48.204;16.516;2022-08-01T11:47:05;31.00;79.50
35894;DHT22;21994;48.204;16.516;2022-08-01T11:52:32;30.50;82.80
35894;DHT22;21994;48.204;16.516;2022-08-01T11:57:33;30.40;83.20
35894;DHT22;21994;48.204;16.516;2022-08-01T12:00:16;30.20;84.30
35894;DHT22;21994;48.204;16.516;2022-08-01T12:02:45;30.20;82.20
35894;DHT22;21994;48.204;16.516;2022-08-01T12:05:16;30.20;86.60
35894;DHT22;21994;48.204;16.516;2022-08-01T12:07:50;30.50;88.60
35894;DHT22;21994;48.204;16.516;2022-08-01T12:10:18;30.70;87.50
35894;DHT22;21994;48.204;16.516;2022-08-01T12:12:48;30.90;84.40
35894;DHT22;21994;48.204;16.516;2022-08-01T12:15:15;30.70;81.50
35894;DHT22;21994;48.204;16.516;2022-08-01T12:20:22;30.20;86.60
35894;DHT22;21994;48.204;16.516;2022-08-01T12:23:06;30.20;87.30
35894;DHT22;21994;48.204;16.516;2022-08-01T12:25:35;30.10;84.90
35894;DHT22;21994;48.204;16.516;2022-08-01T12:28:04;29.80;83.80
35894;DHT22;21994;48.204;16.516;2022-08-01T12:30:32;29.50;82.40
35894;DHT22;21994;48.204;16.516;2022-08-01T12:33:03;29.20;82.80
35894;DHT22;21994;48.204;16.516;2022-08-01T12:35:30;28.70;87.10
35894;DHT22;21994;48.204;16.516;2022-08-01T12:37:59;28.40;85.40
35894;DHT22;21994;48.204;16.516;2022-08-01T12:40:52;28.20;85.30
35894;DHT22;21994;48.204;16.516;2022-08-01T12:43:20;28.10;87.60
35894;DHT22;21994;48.204;16.516;2022-08-01T12:45:49;27.80;88.30
35894;DHT22;21994;48.204;16.516;2022-08-01T12:48:16;27.70;88.20
35894;DHT22;21994;48.204;16.516;2022-08-01T12:50:44;27.50;89.70
35894;DHT22;21994;48.204;16.516;2022-08-01T12:53:12;27.20;89.00
35894;DHT22;21994;48.204;16.516;2022-08-01T12:58:16;27.10;87.00
35894;DHT22;21994;48.204;16.516;2022-08-01T13:00:45;27.20;86.20
35894;DHT22;21994;48.204;16.516;2022-08-01T13:03:14;27.30;87.00
35894;DHT22;21994;48.204;16.516;2022-08-01T13:05:45;27.30;87.20
35894;DHT22;21994;48.204;16.516;2022-08-01T13:08:20;27.40;86.20
35894;DHT22;21994;48.204;16.516;2022-08-01T13:10:48;27.30;87.00
35894;DHT22;21994;48.204;16.516;2022-08-01T13:13:16;27.30;86.60
35894;DHT22;21994;48.204;16.516;2022-08-01T13:15:44;27.20;86.70
35894;DHT22;21994;48.204;16.516;2022-08-01T13:18:32;27.10;89.90
35894;DHT22;21994;48.204;16.516;2022-08-01T13:21:19;27.20;89.70
35894;DHT22;21994;48.204;16.516;2022-08-01T13:24:05;27.30;88.10
35894;DHT22;21994;48.204;16.516;2022-08-01T13:26:55;27.20;88.70
35894;DHT22;21994;48.204;16.516;2022-08-01T13:34:39;28.10;89.50
35894;DHT22;21994;48.204;16.516;2022-08-01T13:37:05;28.20;90.00
35894;DHT22;21994;48.204;16.516;2022-08-01T13:39:30;28.40;90.20
35894;DHT22;21994;48.204;16.516;2022-08-01T13:42:11;28.50;90.00
35894;DHT22;21994;48.204;16.516;2022-08-01T13:44:40;28.70;89.00
35894;DHT22;21994;48.204;16.516;2022-08-01T13:47:09;28.60;88.80
35894;DHT22;21994;48.204;16.516;2022-08-01T13:49:34;28.70;89.40
35894;DHT22;21994;48.204;16.516;2022-08-01T13:52:01;28.70;89.80
35894;DHT22;21994;48.204;16.516;2022-08-01T13:54:27;28.80;88.70
35894;DHT22;21994;48.204;16.516;2022-08-01T13:56:53;28.80;90.10
35894;DHT22;21994;48.204;16.516;2022-08-01T13:59:20;28.80;87.50
35894;DHT22;21994;48.204;16.516;2022-08-01T14:01:46;29.10;90.00
35894;DHT22;21994;48.204;16.516;2022-08-01T14:04:12;29.20;86.80
35894;DHT22;21994;48.204;16.516;2022-08-01T14:06:38;29.10;88.80
35894;DHT22;21994;48.204;16.516;2022-08-01T14:09:05;29.00;85.20
35894;DHT22;21994;48.204;16.516;2022-08-01T14:11:31;28.90;86.10
35894;DHT22;21994;48.204;16.516;2022-08-01T14:13:57;28.40;86.80
35894;DHT22;21994;48.204;16.516;2022-08-01T14:16:23;28.30;86.50
35894;DHT22;21994;48.204;16.516;2022-08-01T14:18:49;28.30;86.80
35894;DHT22;21994;48.204;16.516;2022-08-01T14:21:16;28.20;86.60
35894;DHT22;21994;48.204;16.516;2022-08-01T14:23:42;28.10;86.20
35894;DHT22;21994;48.204;16.516;2022-08-01T14:26:08;28.10;89.50
35894;DHT22;21994;48.204;16.516;2022-08-01T14:28:36;28.00;88.90
35894;DHT22;21994;48.204;16.516;2022-08-01T14:31:02;28.00;88.80
35894;DHT22;21994;48.204;16.516;2022-08-01T14:33:28;28.20;89.20
35894;DHT22;21994;48.204;16.516;2022-08-01T14:35:55;28.30;88.20
35894;DHT22;21994;48.204;16.516;2022-08-01T14:38:21;28.60;89.00
35894;DHT22;21994;48.204;16.516;2022-08-01T14:40:47;28.90;88.90
35894;DHT22;21994;48.204;16.516;2022-08-01T14:43:17;29.20;89.00
35894;DHT22;21994;48.204;16.516;2022-08-01T14:45:44;29.50;88.60
35894;DHT22;21994;48.204;16.516;2022-08-01T14:48:10;29.40;85.60
35894;DHT22;21994;48.204;16.516;2022-08-01T14:50:36;29.40;85.10
35894;DHT22;21994;48.204;16.516;2022-08-01T14:53:02;29.40;85.50
35894;DHT22;21994;48.204;16.516;2022-08-01T14:55:28;29.30;84.50
35894;DHT22;21994;48.204;16.516;2022-08-01T14:57:54;29.70;84.30
35894;DHT22;21994;48.204;16.516;2022-08-01T15:00:20;30.00;86.20
35894;DHT22;21994;48.204;16.516;2022-08-01T15:02:47;30.10;85.20
35894;DHT22;21994;48.204;16.516;2022-08-01T15:05:13;29.90;84.70
35894;DHT22;21994;48.204;16.516;2022-08-01T15:07:39;29.40;84.80
35894;DHT22;21994;48.204;16.516;2022-08-01T15:10:05;29.20;86.60
35894;DHT22;21994;48.204;16.516;2022-08-01T15:12:32;28.90;85.30
35894;DHT22;21994;48.204;16.516;2022-08-01T15:14:59;28.90;87.00
35894;DHT22;21994;48.204;16.516;2022-08-01T15:17:27;28.70;84.20
35894;DHT22;21994;48.204;16.516;2022-08-01T15:19:56;28.50;84.80
35894;DHT22;21994;48.204;16.516;2022-08-01T15:22:24;28.60;86.90
35894;DHT22;21994;48.204;16.516;2022-08-01T15:24:54;28.40;87.90
35894;DHT22;21994;48.204;16.516;2022-08-01T15:27:20;28.60;85.80
35894;DHT22;21994;48.204;16.516;2022-08-01T15:29:47;29.00;85.60
35894;DHT22;21994;48.204;16.516;2022-08-01T15:32:13;29.00;85.70
35894;DHT22;21994;48.204;16.516;2022-08-01T15:34:40;28.90;87.00
35894;DHT22;21994;48.204;16.516;2022-08-01T15:37:06;28.60;85.20
35894;DHT22;21994;48.204;16.516;2022-08-01T15:39:33;28.60;87.10
35894;DHT22;21994;48.204;16.516;2022-08-01T15:42:02;28.60;87.70
35894;DHT22;21994;48.204;16.516;2022-08-01T15:44:30;28.40;87.30
35894;DHT22;21994;48.204;16.516;2022-08-01T15:46:56;28.00;87.60
35894;DHT22;21994;48.204;16.516;2022-08-01T15:49:22;27.90;89.10
35894;DHT22;21994;48.204;16.516;2022-08-01T15:51:49;27.90;90.30
35894;DHT22;21994;48.204;16.516;2022-08-01T15:54:16;28.20;88.70
35894;DHT22;21994;48.204;16.516;2022-08-01T15:56:42;28.50;88.60
35894;DHT22;21994;48.204;16.516;2022-08-01T15:59:08;28.90;89.60
35894;DHT22;21994;48.204;16.516;2022-08-01T16:01:34;28.90;90.20
35894;DHT22;21994;48.204;16.516;2022-08-01T16:04:00;29.60;91.30
35894;DHT22;21994;48.204;16.516;2022-08-01T16:06:26;29.60;90.00
35894;DHT22;21994;48.204;16.516;2022-08-01T16:08:52;29.80;88.90
35894;DHT22;21994;48.204;16.516;2022-08-01T16:11:18;30.30;90.40
35894;DHT22;21994;48.204;16.516;2022-08-01T16:13:45;30.40;90.10
35894;DHT22;21994;48.204;16.516;2022-08-01T16:16:13;29.90;88.50
35894;DHT22;21994;48.204;16.516;2022-08-01T16:18:41;29.80;90.70